sensor_id;sensor_type;location;lat;lon;timestamp;pressure;altitude;pressure_sealevel;temperature;humidity
77881;BME280;67077;50.298;18.996;2024-03-17T00:01:42;98145.88;;;5.66;100.00
77881;BME280;67077;50.298;18.996;2024-03-17T00:04:09;98146.67;;;5.64;100.00
77881;BME280;67077;50.298;18.996;2024-03-17T00:06:37;98153.91;;;5.61;100.00
77881;BME280;67077;50.298;18.996;2024-03-17T00:09:04;98153.52;;;5.60;100.00
77881;BME280;67077;50.298;18.996;2024-03-17T00:11:33;98155.95;;;5.59;100.00
77881;BME280;67077;50.298;18.996;2024-03-17T00:14:02;98152.03;;;5.59;100.00
77881;BME280;67077;50.298;18.996;2024-03-17T00:16:30;98164.97;;;5.59;100.00
77881;BME280;67077;50.298;18.996;2024-03-17T00:18:57;98158.58;;;5.58;100.00
77881;BME280;67077;50.298;18.996;2024-03-17T00:21:25;98162.61;;;5.58;100.00
77881;BME280;67077;50.298;18.996;2024-03-17T00:23:53;98165.11;;;5.56;100.00
77881;BME280;67077;50.298;18.996;2024-03-17T00:26:21;98170.66;;;5.55;100.00
77881;BME280;67077;50.298;18.996;2024-03-17T00:28:49;98171.42;;;5.53;100.00
77881;BME280;67077;50.298;18.996;2024-03-17T00:31:18;98178.50;;;5.50;100.00
77881;BME280;67077;50.298;18.996;2024-03-17T00:33:46;98190.67;;;5.48;100.00
77881;BME280;67077;50.298;18.996;2024-03-17T00:36:14;98215.89;;;5.40;100.00
77881;BME280;67077;50.298;18.996;2024-03-17T00:38:42;98214.85;;;5.21;100.00
77881;BME280;67077;50.298;18.996;2024-03-17T00:41:09;98214.96;;;5.01;100.00
77881;BME280;67077;50.298;18.996;2024-03-17T00:43:37;98219.45;;;4.81;100.00
77881;BME280;67077;50.298;18.996;2024-03-17T00:46:04;98219.55;;;4.63;100.00
77881;BME280;67077;50.298;18.996;2024-03-17T00:48:32;98225.77;;;4.50;100.00
77881;BME280;67077;50.298;18.996;2024-03-17T00:50:59;98234.36;;;4.39;100.00
77881;BME280;67077;50.298;18.996;2024-03-17T00:53:28;98241.66;;;4.27;100.00
77881;BME280;67077;50.298;18.996;2024-03-17T00:55:56;98227.84;;;4.16;100.00
77881;BME280;67077;50.298;18.996;2024-03-17T00:58:28;98229.45;;;4.10;100.00
77881;BME280;67077;50.298;18.996;2024-03-17T01:00:56;98235.95;;;4.05;100.00
77881;BME280;67077;50.298;18.996;2024-03-17T01:03:23;98232.33;;;3.99;100.00
77881;BME280;67077;50.298;18.996;2024-03-17T01:05:51;98232.39;;;3.95;100.00
77881;BME280;67077;50.298;18.996;2024-03-17T01:08:20;98226.88;;;3.92;100.00
77881;BME280;67077;50.298;18.996;2024-03-17T01:10:48;98227.45;;;3.90;100.00
77881;BME280;67077;50.298;18.996;2024-03-17T01:13:17;98226.75;;;3.88;100.00
77881;BME280;67077;50.298;18.996;2024-03-17T01:15:45;98229.17;;;3.88;100.00
77881;BME280;67077;50.298;18.996;2024-03-17T01:18:12;98229.58;;;3.87;100.00
77881;BME280;67077;50.298;18.996;2024-03-17T01:20:40;98231.81;;;3.86;100.00
77881;BME280;67077;50.298;18.996;2024-03-17T01:23:08;98233.36;;;3.87;100.00
77881;BME280;67077;50.298;18.996;2024-03-17T01:25:36;98234.59;;;3.87;100.00
77881;BME280;67077;50.298;18.996;2024-03-17T01:28:04;98228.27;;;3.88;100.00
77881;BME280;67077;50.298;18.996;2024-03-17T01:30:32;98233.23;;;3.89;100.00
77881;BME280;67077;50.298;18.996;2024-03-17T01:33:01;98235.00;;;3.91;100.00
77881;BME280;67077;50.298;18.996;2024-03-17T01:35:29;98235.73;;;3.93;100.00
77881;BME280;67077;50.298;18.996;2024-03-17T01:37:56;98228.65;;;3.95;100.00
77881;BME280;67077;50.298;18.996;2024-03-17T01:40:24;98228.84;;;3.97;100.00
77881;BME280;67077;50.298;18.996;2024-03-17T01:42:51;98231.52;;;3.98;100.00
77881;BME280;67077;50.298;18.996;2024-03-17T01:45:30;98228.11;;;4.00;100.00
77881;BME280;67077;50.298;18.996;2024-03-17T01:48:00;98229.17;;;4.02;100.00
77881;BME280;67077;50.298;18.996;2024-03-17T01:50:33;98240.80;;;4.03;100.00
77881;BME280;67077;50.298;18.996;2024-03-17T01:53:05;98243.16;;;4.04;100.00
77881;BME280;67077;50.298;18.996;2024-03-17T01:55:36;98238.55;;;4.05;100.00
77881;BME280;67077;50.298;18.996;2024-03-17T01:58:05;98237.73;;;4.08;100.00
77881;BME280;67077;50.298;18.996;2024-03-17T02:00:37;98242.63;;;4.08;100.00
77881;BME280;67077;50.298;18.996;2024-03-17T02:03:06;98243.90;;;4.10;100.00
77881;BME280;67077;50.298;18.996;2024-03-17T02:05:36;98242.96;;;4.10;100.00
77881;BME280;67077;50.298;18.996;2024-03-17T02:08:07;98249.08;;;4.11;100.00
77881;BME280;67077;50.298;18.996;2024-03-17T02:10:34;98248.17;;;4.11;100.00
77881;BME280;67077;50.298;18.996;2024-03-17T02:13:02;98253.07;;;4.09;100.00
77881;BME280;67077;50.298;18.996;2024-03-17T02:15:34;98249.38;;;4.06;100.00
77881;BME280;67077;50.298;18.996;2024-03-17T02:18:01;98250.23;;;4.01;100.00
77881;BME280;67077;50.298;18.996;2024-03-17T02:20:29;98252.91;;;3.97;100.00
77881;BME280;67077;50.298;18.996;2024-03-17T02:23:15;98253.91;;;3.91;100.00
77881;BME280;67077;50.298;18.996;2024-03-17T02:25:43;98250.86;;;3.86;100.00
77881;BME280;67077;50.298;18.996;2024-03-17T02:28:13;98252.64;;;3.82;100.00
77881;BME280;67077;50.298;18.996;2024-03-17T02:30:40;98251.78;;;3.78;100.00
77881;BME280;67077;50.298;18.996;2024-03-17T02:33:09;98255.84;;;3.77;100.00
77881;BME280;67077;50.298;18.996;2024-03-17T02:35:37;98256.94;;;3.77;100.00
77881;BME280;67077;50.298;18.996;2024-03-17T02:38:04;98252.16;;;3.77;100.00
77881;BME280;67077;50.298;18.996;2024-03-17T02:40:32;98250.27;;;3.77;100.00
77881;BME280;67077;50.298;18.996;2024-03-17T02:42:59;98253.21;;;3.78;100.00
77881;BME280;67077;50.298;18.996;2024-03-17T02:45:27;98258.50;;;3.79;100.00
77881;BME280;67077;50.298;18.996;2024-03-17T02:47:54;98259.73;;;3.79;100.00
77881;BME280;67077;50.298;18.996;2024-03-17T02:50:22;98265.39;;;3.78;100.00
77881;BME280;67077;50.298;18.996;2024-03-17T02:52:50;98270.48;;;3.76;100.00
77881;BME280;67077;50.298;18.996;2024-03-17T02:55:17;98275.57;;;3.71;100.00
77881;BME280;67077;50.298;18.996;2024-03-17T02:57:44;98276.09;;;3.67;100.00
77881;BME280;67077;50.298;18.996;2024-03-17T03:00:12;98280.84;;;3.61;100.00
77881;BME280;67077;50.298;18.996;2024-03-17T03:02:40;98290.98;;;3.54;100.00
77881;BME280;67077;50.298;18.996;2024-03-17T03:05:08;98292.41;;;3.48;100.00
77881;BME280;67077;50.298;18.996;2024-03-17T03:07:36;98298.27;;;3.42;100.00
77881;BME280;67077;50.298;18.996;2024-03-17T03:10:03;98300.34;;;3.34;100.00
77881;BME280;67077;50.298;18.996;2024-03-17T03:12:31;98301.52;;;3.27;100.00
77881;BME280;67077;50.298;18.996;2024-03-17T03:14:59;98303.31;;;3.20;100.00
77881;BME280;67077;50.298;18.996;2024-03-17T03:17:27;98306.17;;;3.12;100.00
77881;BME280;67077;50.298;18.996;2024-03-17T03:19:54;98310.09;;;3.06;100.00
77881;BME280;67077;50.298;18.996;2024-03-17T03:22:23;98311.29;;;2.99;100.00
77881;BME280;67077;50.298;18.996;2024-03-17T03:24:52;98314.43;;;2.93;100.00
77881;BME280;67077;50.298;18.996;2024-03-17T03:27:20;98315.77;;;2.87;100.00
77881;BME280;67077;50.298;18.996;2024-03-17T03:29:47;98314.84;;;2.81;100.00
77881;BME280;67077;50.298;18.996;2024-03-17T03:32:15;98319.43;;;2.75;100.00
77881;BME280;67077;50.298;18.996;2024-03-17T03:34:45;98322.39;;;2.69;100.00
77881;BME280;67077;50.298;18.996;2024-03-17T03:37:12;98323.55;;;2.63;100.00
77881;BME280;67077;50.298;18.996;2024-03-17T03:39:40;98325.75;;;2.57;100.00
77881;BME280;67077;50.298;18.996;2024-03-17T03:42:07;98329.78;;;2.52;100.00
77881;BME280;67077;50.298;18.996;2024-03-17T03:44:35;98330.78;;;2.47;100.00
77881;BME280;67077;50.298;18.996;2024-03-17T03:47:03;98330.98;;;2.44;100.00
77881;BME280;67077;50.298;18.996;2024-03-17T03:49:30;98332.30;;;2.37;100.00
77881;BME280;67077;50.298;18.996;2024-03-17T03:51:58;98336.33;;;2.33;100.00
77881;BME280;67077;50.298;18.996;2024-03-17T03:54:26;98336.63;;;2.29;100.00
77881;BME280;67077;50.298;18.996;2024-03-17T03:56:53;98342.88;;;2.25;100.00
77881;BME280;67077;50.298;18.996;2024-03-17T03:59:21;98346.81;;;2.21;100.00
77881;BME280;67077;50.298;18.996;2024-03-17T04:01:49;98348.56;;;2.18;100.00
77881;BME280;67077;50.298;18.996;2024-03-17T04:04:16;98348.33;;;2.16;100.00
77881;BME280;67077;50.298;18.996;2024-03-17T04:06:44;98349.19;;;2.12;100.00
77881;BME280;67077;50.298;18.996;2024-03-17T04:09:11;98351.38;;;2.10;100.00
77881;BME280;67077;50.298;18.996;2024-03-17T04:11:39;98354.67;;;2.07;100.00
77881;BME280;67077;50.298;18.996;2024-03-17T04:14:06;98357.95;;;2.03;100.00
77881;BME280;67077;50.298;18.996;2024-03-17T04:16:34;98363.61;;;2.02;100.00
77881;BME280;67077;50.298;18.996;2024-03-17T04:19:02;98361.23;;;1.99;100.00
77881;BME280;67077;50.298;18.996;2024-03-17T04:21:30;98369.34;;;1.96;100.00
77881;BME280;67077;50.298;18.996;2024-03-17T04:23:57;98369.61;;;1.92;100.00
77881;BME280;67077;50.298;18.996;2024-03-17T04:26:25;98369.77;;;1.89;100.00
77881;BME280;67077;50.298;18.996;2024-03-17T04:28:52;98371.61;;;1.85;100.00
77881;BME280;67077;50.298;18.996;2024-03-17T04:31:20;98375.20;;;1.81;100.00
77881;BME280;67077;50.298;18.996;2024-03-17T04:33:47;98376.91;;;1.78;100.00
77881;BME280;67077;50.298;18.996;2024-03-17T04:36:15;98375.23;;;1.75;100.00
77881;BME280;67077;50.298;18.996;2024-03-17T04:38:43;98372.77;;;1.73;100.00
77881;BME280;67077;50.298;18.996;2024-03-17T04:41:10;98377.09;;;1.71;100.00
77881;BME280;67077;50.298;18.996;2024-03-17T04:43:37;98377.41;;;1.70;100.00
77881;BME280;67077;50.298;18.996;2024-03-17T04:46:05;98380.52;;;1.68;100.00
77881;BME280;67077;50.298;18.996;2024-03-17T04:48:34;98382.60;;;1.67;100.00
77881;BME280;67077;50.298;18.996;2024-03-17T04:51:02;98381.86;;;1.66;100.00
77881;BME280;67077;50.298;18.996;2024-03-17T04:53:30;98385.88;;;1.63;100.00
77881;BME280;67077;50.298;18.996;2024-03-17T04:56:02;98387.33;;;1.61;100.00
77881;BME280;67077;50.298;18.996;2024-03-17T04:58:32;98390.69;;;1.61;100.00
77881;BME280;67077;50.298;18.996;2024-03-17T05:01:07;98387.63;;;1.60;100.00
77881;BME280;67077;50.298;18.996;2024-03-17T05:03:35;98391.27;;;1.59;100.00
77881;BME280;67077;50.298;18.996;2024-03-17T05:06:04;98391.44;;;1.59;100.00
77881;BME280;67077;50.298;18.996;2024-03-17T05:08:33;98394.41;;;1.60;100.00
77881;BME280;67077;50.298;18.996;2024-03-17T05:11:03;98395.61;;;1.60;100.00
77881;BME280;67077;50.298;18.996;2024-03-17T05:13:36;98401.01;;;1.60;100.00
77881;BME280;67077;50.298;18.996;2024-03-17T05:16:06;98397.41;;;1.60;100.00
77881;BME280;67077;50.298;18.996;2024-03-17T05:18:33;98398.58;;;1.61;100.00
77881;BME280;67077;50.298;18.996;2024-03-17T05:21:03;98396.58;;;1.61;100.00
77881;BME280;67077;50.298;18.996;2024-03-17T05:23:33;98395.91;;;1.61;100.00
77881;BME280;67077;50.298;18.996;2024-03-17T05:26:01;98398.69;;;1.61;100.00
77881;BME280;67077;50.298;18.996;2024-03-17T05:28:29;98398.85;;;1.61;100.00
77881;BME280;67077;50.298;18.996;2024-03-17T05:30:58;98401.22;;;1.62;100.00
77881;BME280;67077;50.298;18.996;2024-03-17T05:33:26;98410.21;;;1.63;100.00
77881;BME280;67077;50.298;18.996;2024-03-17T05:35:55;98411.23;;;1.65;100.00
77881;BME280;67077;50.298;18.996;2024-03-17T05:38:27;98416.51;;;1.69;100.00
77881;BME280;67077;50.298;18.996;2024-03-17T05:40:58;98410.27;;;1.73;100.00
77881;BME280;67077;50.298;18.996;2024-03-17T05:43:31;98411.06;;;1.77;100.00
77881;BME280;67077;50.298;18.996;2024-03-17T05:46:10;98416.60;;;1.83;100.00
77881;BME280;67077;50.298;18.996;2024-03-17T05:48:40;98419.94;;;1.87;100.00
77881;BME280;67077;50.298;18.996;2024-03-17T05:51:09;98419.35;;;1.91;100.00
77881;BME280;67077;50.298;18.996;2024-03-17T05:53:39;98425.80;;;1.95;100.00
77881;BME280;67077;50.298;18.996;2024-03-17T05:56:11;98424.11;;;2.00;100.00
77881;BME280;67077;50.298;18.996;2024-03-17T05:58:39;98428.85;;;2.03;100.00
77881;BME280;67077;50.298;18.996;2024-03-17T06:01:07;98429.30;;;2.08;100.00
77881;BME280;67077;50.298;18.996;2024-03-17T06:03:35;98432.44;;;2.12;100.00
77881;BME280;67077;50.298;18.996;2024-03-17T06:06:04;98432.75;;;2.16;100.00
77881;BME280;67077;50.298;18.996;2024-03-17T06:08:32;98434.48;;;2.20;100.00
77881;BME280;67077;50.298;18.996;2024-03-17T06:11:00;98430.36;;;2.23;100.00
77881;BME280;67077;50.298;18.996;2024-03-17T06:13:28;98435.58;;;2.28;100.00
77881;BME280;67077;50.298;18.996;2024-03-17T06:15:55;98442.21;;;2.31;100.00
77881;BME280;67077;50.298;18.996;2024-03-17T06:18:27;98444.07;;;2.35;100.00
77881;BME280;67077;50.298;18.996;2024-03-17T06:20:55;98447.35;;;2.39;100.00
77881;BME280;67077;50.298;18.996;2024-03-17T06:23:26;98462.03;;;2.44;100.00
77881;BME280;67077;50.298;18.996;2024-03-17T06:25:56;98459.95;;;2.47;100.00
77881;BME280;67077;50.298;18.996;2024-03-17T06:28:24;98462.80;;;2.52;100.00
77881;BME280;67077;50.298;18.996;2024-03-17T06:30:58;98458.00;;;2.60;100.00
77881;BME280;67077;50.298;18.996;2024-03-17T06:33:32;98458.45;;;2.74;100.00
77881;BME280;67077;50.298;18.996;2024-03-17T06:36:03;98460.58;;;2.88;100.00
77881;BME280;67077;50.298;18.996;2024-03-17T06:38:32;98450.27;;;3.00;100.00
77881;BME280;67077;50.298;18.996;2024-03-17T06:41:00;98448.61;;;3.10;100.00
77881;BME280;67077;50.298;18.996;2024-03-17T06:43:28;98448.36;;;3.19;100.00
77881;BME280;67077;50.298;18.996;2024-03-17T06:45:59;98453.22;;;3.25;100.00
77881;BME280;67077;50.298;18.996;2024-03-17T06:48:29;98446.17;;;3.26;100.00
77881;BME280;67077;50.298;18.996;2024-03-17T06:50:56;98446.52;;;3.30;100.00
77881;BME280;67077;50.298;18.996;2024-03-17T06:53:25;98447.89;;;3.37;100.00
77881;BME280;67077;50.298;18.996;2024-03-17T06:55:57;98450.61;;;3.43;100.00
77881;BME280;67077;50.298;18.996;2024-03-17T06:58:27;98450.98;;;3.44;100.00
77881;BME280;67077;50.298;18.996;2024-03-17T07:00:56;98457.99;;;3.46;100.00
77881;BME280;67077;50.298;18.996;2024-03-17T07:03:31;98459.73;;;3.48;100.00
77881;BME280;67077;50.298;18.996;2024-03-17T07:06:02;98460.27;;;3.51;100.00
77881;BME280;67077;50.298;18.996;2024-03-17T07:08:30;98459.82;;;3.57;100.00
77881;BME280;67077;50.298;18.996;2024-03-17T07:11:00;98460.73;;;3.67;100.00
77881;BME280;67077;50.298;18.996;2024-03-17T07:13:32;98468.63;;;3.71;100.00
77881;BME280;67077;50.298;18.996;2024-03-17T07:16:01;98467.11;;;3.75;100.00
77881;BME280;67077;50.298;18.996;2024-03-17T07:18:29;98463.03;;;3.83;100.00
77881;BME280;67077;50.298;18.996;2024-03-17T07:21:01;98462.20;;;3.92;100.00
77881;BME280;67077;50.298;18.996;2024-03-17T07:23:32;98458.89;;;4.03;100.00
77881;BME280;67077;50.298;18.996;2024-03-17T07:26:01;98456.27;;;4.07;100.00
77881;BME280;67077;50.298;18.996;2024-03-17T07:28:30;98456.77;;;4.12;100.00
77881;BME280;67077;50.298;18.996;2024-03-17T07:30:59;98470.34;;;4.20;100.00
77881;BME280;67077;50.298;18.996;2024-03-17T07:33:30;98465.50;;;4.17;100.00
77881;BME280;67077;50.298;18.996;2024-03-17T07:35:58;98469.40;;;4.21;100.00
77881;BME280;67077;50.298;18.996;2024-03-17T07:38:29;98466.71;;;4.27;100.00
77881;BME280;67077;50.298;18.996;2024-03-17T07:41:02;98467.58;;;4.34;100.00
77881;BME280;67077;50.298;18.996;2024-03-17T07:43:32;98471.25;;;4.36;100.00
77881;BME280;67077;50.298;18.996;2024-03-17T07:46:06;98474.27;;;4.33;100.00
77881;BME280;67077;50.298;18.996;2024-03-17T07:48:36;98476.74;;;4.33;100.00
77881;BME280;67077;50.298;18.996;2024-03-17T07:51:06;98473.18;;;4.38;100.00
77881;BME280;67077;50.298;18.996;2024-03-17T07:53:37;98471.53;;;4.46;100.00
77881;BME280;67077;50.298;18.996;2024-03-17T07:56:09;98476.29;;;4.55;100.00
77881;BME280;67077;50.298;18.996;2024-03-17T07:58:39;98470.96;;;4.61;100.00
77881;BME280;67077;50.298;18.996;2024-03-17T08:01:09;98479.42;;;4.71;100.00
77881;BME280;67077;50.298;18.996;2024-03-17T08:03:42;98473.20;;;4.82;100.00
77881;BME280;67077;50.298;18.996;2024-03-17T08:06:11;98461.37;;;4.94;100.00
77881;BME280;67077;50.298;18.996;2024-03-17T08:08:39;98466.37;;;5.04;100.00
77881;BME280;67077;50.298;18.996;2024-03-17T08:11:07;98465.33;;;5.09;100.00
77881;BME280;67077;50.298;18.996;2024-03-17T08:13:34;98465.53;;;5.06;100.00
77881;BME280;67077;50.298;18.996;2024-03-17T08:16:04;98460.12;;;5.01;100.00
77881;BME280;67077;50.298;18.996;2024-03-17T08:18:38;98460.37;;;4.99;100.00
77881;BME280;67077;50.298;18.996;2024-03-17T08:21:06;98458.61;;;5.05;100.00
77881;BME280;67077;50.298;18.996;2024-03-17T08:23:34;98458.52;;;5.09;100.00
77881;BME280;67077;50.298;18.996;2024-03-17T08:26:05;98460.45;;;5.13;100.00
77881;BME280;67077;50.298;18.996;2024-03-17T08:28:33;98455.61;;;5.14;100.00
77881;BME280;67077;50.298;18.996;2024-03-17T08:31:01;98452.20;;;5.16;100.00
77881;BME280;67077;50.298;18.996;2024-03-17T08:33:30;98451.52;;;5.19;100.00
77881;BME280;67077;50.298;18.996;2024-03-17T08:36:04;98448.64;;;5.21;99.93
77881;BME280;67077;50.298;18.996;2024-03-17T08:38:33;98449.00;;;5.24;99.26
77881;BME280;67077;50.298;18.996;2024-03-17T08:41:10;98444.95;;;5.23;98.41
77881;BME280;67077;50.298;18.996;2024-03-17T08:43:38;98453.43;;;5.21;97.24
77881;BME280;67077;50.298;18.996;2024-03-17T08:46:07;98439.97;;;5.20;93.10
77881;BME280;67077;50.298;18.996;2024-03-17T08:48:39;98435.84;;;5.22;95.44
77881;BME280;67077;50.298;18.996;2024-03-17T08:51:08;98432.02;;;5.28;94.08
77881;BME280;67077;50.298;18.996;2024-03-17T08:53:36;98433.91;;;5.30;94.22
77881;BME280;67077;50.298;18.996;2024-03-17T08:56:06;98437.13;;;5.29;94.12
77881;BME280;67077;50.298;18.996;2024-03-17T08:58:33;98448.74;;;5.27;94.36
77881;BME280;67077;50.298;18.996;2024-03-17T09:01:08;98445.39;;;5.27;92.23
77881;BME280;67077;50.298;18.996;2024-03-17T09:03:36;98440.63;;;5.28;90.57
77881;BME280;67077;50.298;18.996;2024-03-17T09:06:04;98442.45;;;5.37;91.61
77881;BME280;67077;50.298;18.996;2024-03-17T09:08:31;98439.55;;;5.53;91.91
77881;BME280;67077;50.298;18.996;2024-03-17T09:11:00;98450.95;;;5.68;90.09
77881;BME280;67077;50.298;18.996;2024-03-17T09:13:28;98442.85;;;5.78;86.48
77881;BME280;67077;50.298;18.996;2024-03-17T09:15:58;98447.23;;;5.80;85.13
77881;BME280;67077;50.298;18.996;2024-03-17T09:18:33;98438.61;;;5.76;85.21
77881;BME280;67077;50.298;18.996;2024-03-17T09:21:02;98438.08;;;5.76;84.96
77881;BME280;67077;50.298;18.996;2024-03-17T09:23:31;98441.29;;;5.82;86.66
77881;BME280;67077;50.298;18.996;2024-03-17T09:26:04;98440.56;;;5.94;86.41
77881;BME280;67077;50.298;18.996;2024-03-17T09:28:32;98441.64;;;6.04;84.46
77881;BME280;67077;50.298;18.996;2024-03-17T09:31:03;98436.42;;;6.11;85.06
77881;BME280;67077;50.298;18.996;2024-03-17T09:33:35;98443.46;;;6.23;85.65
77881;BME280;67077;50.298;18.996;2024-03-17T09:36:07;98449.66;;;6.23;84.87
77881;BME280;67077;50.298;18.996;2024-03-17T09:38:35;98448.61;;;6.19;85.58
77881;BME280;67077;50.298;18.996;2024-03-17T09:41:03;98446.77;;;6.10;84.28
77881;BME280;67077;50.298;18.996;2024-03-17T09:43:35;98447.12;;;6.06;81.80
77881;BME280;67077;50.298;18.996;2024-03-17T09:46:04;98441.33;;;6.08;81.94
77881;BME280;67077;50.298;18.996;2024-03-17T09:48:32;98437.71;;;6.14;80.40
77881;BME280;67077;50.298;18.996;2024-03-17T09:51:01;98433.34;;;6.22;80.07
77881;BME280;67077;50.298;18.996;2024-03-17T09:53:31;98429.42;;;6.28;79.53
77881;BME280;67077;50.298;18.996;2024-03-17T09:56:11;98426.70;;;6.28;77.89
77881;BME280;67077;50.298;18.996;2024-03-17T09:58:39;98424.27;;;6.27;77.38
77881;BME280;67077;50.298;18.996;2024-03-17T10:01:07;98428.98;;;6.24;78.05
77881;BME280;67077;50.298;18.996;2024-03-17T10:06:14;98428.70;;;6.06;78.79
77881;BME280;67077;50.298;18.996;2024-03-17T10:08:48;98424.40;;;5.90;78.90
77881;BME280;67077;50.298;18.996;2024-03-17T10:11:25;98424.13;;;5.80;81.14
77881;BME280;67077;50.298;18.996;2024-03-17T10:16:29;98427.61;;;5.72;82.57
77881;BME280;67077;50.298;18.996;2024-03-17T10:19:22;98425.02;;;5.71;83.37
77881;BME280;67077;50.298;18.996;2024-03-17T10:21:59;98427.32;;;5.67;83.98
77881;BME280;67077;50.298;18.996;2024-03-17T10:24:28;98423.65;;;5.63;84.52
77881;BME280;67077;50.298;18.996;2024-03-17T10:26:59;98427.52;;;5.62;83.94
77881;BME280;67077;50.298;18.996;2024-03-17T10:29:34;98426.86;;;5.62;83.08
77881;BME280;67077;50.298;18.996;2024-03-17T10:32:13;98426.23;;;5.59;82.51
77881;BME280;67077;50.298;18.996;2024-03-17T10:34:42;98420.23;;;5.65;80.73
77881;BME280;67077;50.298;18.996;2024-03-17T10:37:14;98424.54;;;5.76;78.47
77881;BME280;67077;50.298;18.996;2024-03-17T10:39:43;98418.95;;;5.80;76.88
77881;BME280;67077;50.298;18.996;2024-03-17T10:42:12;98413.42;;;5.86;76.63
77881;BME280;67077;50.298;18.996;2024-03-17T10:44:42;98414.27;;;6.02;75.29
77881;BME280;67077;50.298;18.996;2024-03-17T10:47:21;98404.67;;;6.16;75.43
77881;BME280;67077;50.298;18.996;2024-03-17T10:49:56;98402.04;;;6.28;73.54
77881;BME280;67077;50.298;18.996;2024-03-17T10:52:24;98399.14;;;6.39;73.01
77881;BME280;67077;50.298;18.996;2024-03-17T10:54:56;98382.91;;;6.47;71.62
77881;BME280;67077;50.298;18.996;2024-03-17T10:59:55;98392.86;;;6.65;71.97
77881;BME280;67077;50.298;18.996;2024-03-17T11:02:24;98388.85;;;6.69;71.90
77881;BME280;67077;50.298;18.996;2024-03-17T11:04:57;98388.15;;;6.66;67.76
77881;BME280;67077;50.298;18.996;2024-03-17T11:07:26;98388.25;;;6.61;66.82
77881;BME280;67077;50.298;18.996;2024-03-17T11:09:55;98388.80;;;6.60;69.27
77881;BME280;67077;50.298;18.996;2024-03-17T11:17:47;98380.30;;;6.51;71.33
77881;BME280;67077;50.298;18.996;2024-03-17T11:20:19;98378.89;;;6.65;71.53
77881;BME280;67077;50.298;18.996;2024-03-17T11:22:51;98369.54;;;6.87;70.64
77881;BME280;67077;50.298;18.996;2024-03-17T11:27:59;98365.76;;;7.22;67.66
77881;BME280;67077;50.298;18.996;2024-03-17T11:39:05;98366.20;;;7.37;67.23
77881;BME280;67077;50.298;18.996;2024-03-17T11:41:44;98361.98;;;7.35;66.83
77881;BME280;67077;50.298;18.996;2024-03-17T11:47:05;98352.63;;;7.37;65.29
77881;BME280;67077;50.298;18.996;2024-03-17T11:49:38;98347.20;;;7.40;65.04
77881;BME280;67077;50.298;18.996;2024-03-17T11:52:11;98352.42;;;7.41;65.35
77881;BME280;67077;50.298;18.996;2024-03-17T11:54:46;98350.64;;;7.41;64.61
77881;BME280;67077;50.298;18.996;2024-03-17T11:57:24;98341.92;;;7.43;64.36
77881;BME280;67077;50.298;18.996;2024-03-17T11:59:52;98333.55;;;7.47;64.03
77881;BME280;67077;50.298;18.996;2024-03-17T12:02:29;98331.35;;;7.53;63.95
77881;BME280;67077;50.298;18.996;2024-03-17T12:04:58;98341.55;;;7.56;63.04
77881;BME280;67077;50.298;18.996;2024-03-17T12:07:26;98334.16;;;7.58;63.44
77881;BME280;67077;50.298;18.996;2024-03-17T12:09:56;98341.16;;;7.61;63.94
77881;BME280;67077;50.298;18.996;2024-03-17T12:12:26;98335.23;;;7.68;63.34
77881;BME280;67077;50.298;18.996;2024-03-17T12:15:17;98329.14;;;7.73;62.52
77881;BME280;67077;50.298;18.996;2024-03-17T12:17:46;98328.06;;;7.78;63.61
77881;BME280;67077;50.298;18.996;2024-03-17T12:20:17;98336.91;;;7.86;64.88
77881;BME280;67077;50.298;18.996;2024-03-17T12:22:45;98337.05;;;7.77;62.49
77881;BME280;67077;50.298;18.996;2024-03-17T12:25:19;98335.00;;;7.51;62.93
77881;BME280;67077;50.298;18.996;2024-03-17T12:27:48;98329.91;;;7.33;64.04
77881;BME280;67077;50.298;18.996;2024-03-17T12:30:16;98323.35;;;7.31;65.81
77881;BME280;67077;50.298;18.996;2024-03-17T12:32:45;98320.13;;;7.44;66.28
77881;BME280;67077;50.298;18.996;2024-03-17T12:35:15;98309.75;;;7.61;63.05
77881;BME280;67077;50.298;18.996;2024-03-17T12:37:45;98305.19;;;7.75;61.97
77881;BME280;67077;50.298;18.996;2024-03-17T12:40:18;98298.66;;;7.87;59.78
77881;BME280;67077;50.298;18.996;2024-03-17T12:42:48;98299.95;;;7.95;58.65
77881;BME280;67077;50.298;18.996;2024-03-17T12:45:20;98294.36;;;8.00;58.14
77881;BME280;67077;50.298;18.996;2024-03-17T12:47:50;98292.54;;;7.99;58.40
77881;BME280;67077;50.298;18.996;2024-03-17T12:50:18;98307.09;;;7.93;58.15
77881;BME280;67077;50.298;18.996;2024-03-17T12:52:54;98300.23;;;7.82;58.40
77881;BME280;67077;50.298;18.996;2024-03-17T12:55:25;98296.79;;;7.74;58.53
77881;BME280;67077;50.298;18.996;2024-03-17T12:58:11;98299.56;;;7.69;57.87
77881;BME280;67077;50.298;18.996;2024-03-17T13:01:02;98300.52;;;7.64;55.84
77881;BME280;67077;50.298;18.996;2024-03-17T13:03:35;98286.95;;;7.65;55.83
77881;BME280;67077;50.298;18.996;2024-03-17T13:06:04;98290.52;;;7.71;56.44
77881;BME280;67077;50.298;18.996;2024-03-17T13:08:36;98300.83;;;7.62;55.86
77881;BME280;67077;50.298;18.996;2024-03-17T13:11:03;98296.98;;;7.46;54.78
77881;BME280;67077;50.298;18.996;2024-03-17T13:13:31;98298.61;;;7.34;54.32
77881;BME280;67077;50.298;18.996;2024-03-17T13:15:59;98290.64;;;7.27;55.02
77881;BME280;67077;50.298;18.996;2024-03-17T13:18:26;98289.66;;;7.29;55.54
77881;BME280;67077;50.298;18.996;2024-03-17T13:20:54;98292.20;;;7.38;55.19
77881;BME280;67077;50.298;18.996;2024-03-17T13:23:25;98288.65;;;7.45;54.77
77881;BME280;67077;50.298;18.996;2024-03-17T13:25:53;98284.96;;;7.54;55.11
77881;BME280;67077;50.298;18.996;2024-03-17T13:28:20;98293.30;;;7.67;55.10
77881;BME280;67077;50.298;18.996;2024-03-17T13:30:48;98277.85;;;7.79;54.25
77881;BME280;67077;50.298;18.996;2024-03-17T13:33:15;98275.23;;;7.88;53.87